Willits, CA (95490)

1:25 PM PDT on September 01, 2015 (GMT -0700)
Mendocino College Willits | | Change Station
CLOSE
Current Station
Personal Weather Station
Location: Willits, CA
Elevation: 1355 ft
Nearby Weather Stations

Elev 1355 ft 39.41 °N, 123.35 °W | Updated 19 seconds ago

Clear
Clear
83.7 °F
Feels Like 82 °F
N
3.0
Wind Variable Wind from WNW
Gusts 7.0 mph

Today
High -- | Low -- °F
--% Chance of Precip.
Yesterday
High -- | Low -- °F
Precip. -- in
6:41 AM 7:44 PM
Waning Gibbous, 86% visible
Pressure 29.81 in
Visibility 10.0 miles
Clouds Clear
Heat Index 82 °F
Dew Point 54 °F
Humidity 36%
Rainfall 0.00 in
Snow Depth Not available.
UV 9 out of 12
Pollen 8.30 out of 12
Air Quality Not available.
Flu Activity Not available.
METAR KUKI 011956Z AUTO VRB03KT 10SM CLR 31/12 A2983 RMK AO2 SLP095 T03060117
Pressure 29.81 in
Visibility 10.0 miles
Clouds Clear
Heat Index 82 °F
Dew Point 54 °F
Humidity 36%
Rainfall 0.00 in
Snow Depth Not available.
UV 9 out of 12
Pollen 8.30 out of 12
Air Quality Not available.
Flu Activity Not available.
METAR KUKI 011956Z AUTO VRB03KT 10SM CLR 31/12 A2983 RMK AO2 SLP095 T03060117

10-Day Weather Forecast

×

Almanac

Astronomy

Sep. 01, 2015 Rise Set
Actual Time
Civil Twilight
Nautical Twilight
Astronomical Twilight
Moon
Length of Visible Light
Length of Day
Tomorrow will be .
, % of the Moon is Illuminated

Today's Extremes

State Highs State Lows

Community

WunderPhotos

Upload Photos

1,851,605 photos uploaded!

WunderBlogs® & News

Nearby

Air Quality

  Air Quality AQ Index Pollutant
Not available.

Snow Depth

Station Depth Elevation

Earthquake Activity

City Distance Mag. Time & Date
Minimum magnitude displayed is 2.5.

Coastal Water Temperatures

Place Temperature

Stations

Nearby Weather Stations

Station Location Temp. Windchill Dew Point Humidity Wind Precip. Elev Updated Type